sensor_id;sensor_type;location;lat;lon;timestamp;temperature;humidity
4453;DHT22;2239;48.152;11.584;2023-11-21T00:01:52;8.10;99.90
4453;DHT22;2239;48.152;11.584;2023-11-21T00:04:17;8.20;99.90
4453;DHT22;2239;48.152;11.584;2023-11-21T00:06:43;8.20;99.90
4453;DHT22;2239;48.152;11.584;2023-11-21T00:09:12;8.20;99.90
4453;DHT22;2239;48.152;11.584;2023-11-21T00:11:38;8.20;99.90
4453;DHT22;2239;48.152;11.584;2023-11-21T00:14:04;8.10;99.90
4453;DHT22;2239;48.152;11.584;2023-11-21T00:16:30;8.10;99.90
4453;DHT22;2239;48.152;11.584;2023-11-21T00:18:55;8.10;99.90
4453;DHT22;2239;48.152;11.584;2023-11-21T00:21:21;8.00;99.90
4453;DHT22;2239;48.152;11.584;2023-11-21T00:23:46;8.00;99.90
4453;DHT22;2239;48.152;11.584;2023-11-21T00:26:12;8.00;99.90
4453;DHT22;2239;48.152;11.584;2023-11-21T00:28:37;7.90;99.90
4453;DHT22;2239;48.152;11.584;2023-11-21T00:31:03;7.90;99.90
4453;DHT22;2239;48.152;11.584;2023-11-21T00:33:29;7.90;99.90
4453;DHT22;2239;48.152;11.584;2023-11-21T00:35:55;7.90;99.90
4453;DHT22;2239;48.152;11.584;2023-11-21T00:38:20;7.90;99.90
4453;DHT22;2239;48.152;11.584;2023-11-21T00:40:46;7.90;99.90
4453;DHT22;2239;48.152;11.584;2023-11-21T00:43:12;8.00;99.90
4453;DHT22;2239;48.152;11.584;2023-11-21T00:45:37;7.90;99.90
4453;DHT22;2239;48.152;11.584;2023-11-21T00:48:03;7.90;99.90
4453;DHT22;2239;48.152;11.584;2023-11-21T00:50:30;7.90;99.90
4453;DHT22;2239;48.152;11.584;2023-11-21T00:52:56;7.90;99.90
4453;DHT22;2239;48.152;11.584;2023-11-21T00:55:22;7.90;99.90
4453;DHT22;2239;48.152;11.584;2023-11-21T00:57:47;7.90;99.90
4453;DHT22;2239;48.152;11.584;2023-11-21T01:00:13;7.90;99.90
4453;DHT22;2239;48.152;11.584;2023-11-21T01:02:43;7.90;99.90
4453;DHT22;2239;48.152;11.584;2023-11-21T01:05:09;7.90;99.90
4453;DHT22;2239;48.152;11.584;2023-11-21T01:07:36;7.90;99.90
4453;DHT22;2239;48.152;11.584;2023-11-21T01:10:02;7.90;99.90
4453;DHT22;2239;48.152;11.584;2023-11-21T01:12:28;8.00;99.90
4453;DHT22;2239;48.152;11.584;2023-11-21T01:14:54;7.90;99.90
4453;DHT22;2239;48.152;11.584;2023-11-21T01:17:20;7.90;99.90
4453;DHT22;2239;48.152;11.584;2023-11-21T01:19:47;7.80;99.90
4453;DHT22;2239;48.152;11.584;2023-11-21T01:22:13;7.80;99.90
4453;DHT22;2239;48.152;11.584;2023-11-21T01:24:39;7.80;99.90
4453;DHT22;2239;48.152;11.584;2023-11-21T01:27:04;7.80;99.90
4453;DHT22;2239;48.152;11.584;2023-11-21T01:29:30;7.80;99.90
4453;DHT22;2239;48.152;11.584;2023-11-21T01:31:55;7.80;99.90
4453;DHT22;2239;48.152;11.584;2023-11-21T01:34:22;7.80;99.90
4453;DHT22;2239;48.152;11.584;2023-11-21T01:36:48;7.70;99.90
4453;DHT22;2239;48.152;11.584;2023-11-21T01:39:14;7.70;99.90
4453;DHT22;2239;48.152;11.584;2023-11-21T01:41:41;7.60;99.90
4453;DHT22;2239;48.152;11.584;2023-11-21T01:44:09;7.70;99.90
4453;DHT22;2239;48.152;11.584;2023-11-21T01:46:35;7.70;99.90
4453;DHT22;2239;48.152;11.584;2023-11-21T01:49:01;7.70;99.90
4453;DHT22;2239;48.152;11.584;2023-11-21T01:51:27;7.70;99.90
4453;DHT22;2239;48.152;11.584;2023-11-21T01:53:52;7.70;99.90
4453;DHT22;2239;48.152;11.584;2023-11-21T01:56:18;7.70;99.90
4453;DHT22;2239;48.152;11.584;2023-11-21T01:58:44;7.70;99.90
4453;DHT22;2239;48.152;11.584;2023-11-21T02:01:12;7.70;99.90
4453;DHT22;2239;48.152;11.584;2023-11-21T02:03:37;7.70;99.90
4453;DHT22;2239;48.152;11.584;2023-11-21T02:06:03;7.70;99.90
4453;DHT22;2239;48.152;11.584;2023-11-21T02:08:29;7.80;99.90
4453;DHT22;2239;48.152;11.584;2023-11-21T02:10:54;7.80;99.90
4453;DHT22;2239;48.152;11.584;2023-11-21T02:13:20;7.90;99.90
4453;DHT22;2239;48.152;11.584;2023-11-21T02:15:45;8.00;99.90
4453;DHT22;2239;48.152;11.584;2023-11-21T02:18:13;8.00;99.90
4453;DHT22;2239;48.152;11.584;2023-11-21T02:20:40;8.10;99.90
4453;DHT22;2239;48.152;11.584;2023-11-21T02:23:07;8.00;99.90
4453;DHT22;2239;48.152;11.584;2023-11-21T02:25:33;8.00;99.90
4453;DHT22;2239;48.152;11.584;2023-11-21T02:28:03;8.10;99.90
4453;DHT22;2239;48.152;11.584;2023-11-21T02:30:29;8.10;99.90
4453;DHT22;2239;48.152;11.584;2023-11-21T02:32:58;8.00;99.90
4453;DHT22;2239;48.152;11.584;2023-11-21T02:35:24;8.00;99.90
4453;DHT22;2239;48.152;11.584;2023-11-21T02:37:53;8.00;99.90
4453;DHT22;2239;48.152;11.584;2023-11-21T02:40:19;7.90;99.90
4453;DHT22;2239;48.152;11.584;2023-11-21T02:42:49;7.90;99.90
4453;DHT22;2239;48.152;11.584;2023-11-21T02:45:16;7.80;99.90
4453;DHT22;2239;48.152;11.584;2023-11-21T02:47:43;7.80;99.90
4453;DHT22;2239;48.152;11.584;2023-11-21T02:50:09;7.80;99.90
4453;DHT22;2239;48.152;11.584;2023-11-21T02:52:35;7.80;99.90
4453;DHT22;2239;48.152;11.584;2023-11-21T02:55:04;7.70;99.90
4453;DHT22;2239;48.152;11.584;2023-11-21T02:57:30;7.70;99.90
4453;DHT22;2239;48.152;11.584;2023-11-21T02:59:55;7.70;99.90
4453;DHT22;2239;48.152;11.584;2023-11-21T03:02:21;7.70;99.90
4453;DHT22;2239;48.152;11.584;2023-11-21T03:04:47;7.70;99.90
4453;DHT22;2239;48.152;11.584;2023-11-21T03:07:14;7.70;99.90
4453;DHT22;2239;48.152;11.584;2023-11-21T03:09:40;7.70;99.90
4453;DHT22;2239;48.152;11.584;2023-11-21T03:12:06;7.70;99.90
4453;DHT22;2239;48.152;11.584;2023-11-21T03:14:31;7.70;99.90
4453;DHT22;2239;48.152;11.584;2023-11-21T03:16:57;7.70;99.90
4453;DHT22;2239;48.152;11.584;2023-11-21T03:19:22;7.70;99.90
4453;DHT22;2239;48.152;11.584;2023-11-21T03:21:49;7.70;99.90
4453;DHT22;2239;48.152;11.584;2023-11-21T03:24:14;7.70;99.90
4453;DHT22;2239;48.152;11.584;2023-11-21T03:26:44;7.70;99.90
4453;DHT22;2239;48.152;11.584;2023-11-21T03:29:10;7.70;99.90
4453;DHT22;2239;48.152;11.584;2023-11-21T03:31:35;7.60;99.90
4453;DHT22;2239;48.152;11.584;2023-11-21T03:34:01;7.70;99.90
4453;DHT22;2239;48.152;11.584;2023-11-21T03:36:27;7.60;99.90
4453;DHT22;2239;48.152;11.584;2023-11-21T03:38:52;7.70;99.90
4453;DHT22;2239;48.152;11.584;2023-11-21T03:41:18;7.70;99.90
4453;DHT22;2239;48.152;11.584;2023-11-21T03:43:44;7.70;99.90
4453;DHT22;2239;48.152;11.584;2023-11-21T03:46:09;7.70;99.90
4453;DHT22;2239;48.152;11.584;2023-11-21T03:48:35;7.70;99.90
4453;DHT22;2239;48.152;11.584;2023-11-21T03:51:01;7.70;99.90
4453;DHT22;2239;48.152;11.584;2023-11-21T03:53:26;7.80;99.90
4453;DHT22;2239;48.152;11.584;2023-11-21T03:55:52;7.80;99.90
4453;DHT22;2239;48.152;11.584;2023-11-21T03:58:18;7.80;99.90
4453;DHT22;2239;48.152;11.584;2023-11-21T04:00:43;7.70;99.90
4453;DHT22;2239;48.152;11.584;2023-11-21T04:03:09;7.70;99.90
4453;DHT22;2239;48.152;11.584;2023-11-21T04:05:34;7.70;99.90
4453;DHT22;2239;48.152;11.584;2023-11-21T04:08:00;7.70;99.90
4453;DHT22;2239;48.152;11.584;2023-11-21T04:10:25;7.60;99.90
4453;DHT22;2239;48.152;11.584;2023-11-21T04:12:51;7.60;99.90
4453;DHT22;2239;48.152;11.584;2023-11-21T04:15:16;7.60;99.90
4453;DHT22;2239;48.152;11.584;2023-11-21T04:17:42;7.60;99.90
4453;DHT22;2239;48.152;11.584;2023-11-21T04:20:08;7.60;99.90
4453;DHT22;2239;48.152;11.584;2023-11-21T04:22:44;7.60;99.90
4453;DHT22;2239;48.152;11.584;2023-11-21T04:25:10;7.60;99.90
4453;DHT22;2239;48.152;11.584;2023-11-21T04:27:38;7.70;99.90
4453;DHT22;2239;48.152;11.584;2023-11-21T04:30:04;7.70;99.90
4453;DHT22;2239;48.152;11.584;2023-11-21T04:32:30;7.70;99.90
4453;DHT22;2239;48.152;11.584;2023-11-21T04:34:57;7.70;99.90
4453;DHT22;2239;48.152;11.584;2023-11-21T04:37:23;7.70;99.90
4453;DHT22;2239;48.152;11.584;2023-11-21T04:39:49;7.70;99.90
4453;DHT22;2239;48.152;11.584;2023-11-21T04:42:15;7.70;99.90
4453;DHT22;2239;48.152;11.584;2023-11-21T04:44:40;7.70;99.90
4453;DHT22;2239;48.152;11.584;2023-11-21T04:47:06;7.70;99.90
4453;DHT22;2239;48.152;11.584;2023-11-21T04:49:33;7.70;99.90
4453;DHT22;2239;48.152;11.584;2023-11-21T04:51:58;7.70;99.90
4453;DHT22;2239;48.152;11.584;2023-11-21T04:54:24;7.60;99.90
4453;DHT22;2239;48.152;11.584;2023-11-21T04:56:49;7.60;99.90
4453;DHT22;2239;48.152;11.584;2023-11-21T04:59:15;7.60;99.90
4453;DHT22;2239;48.152;11.584;2023-11-21T05:01:41;7.60;99.90
4453;DHT22;2239;48.152;11.584;2023-11-21T05:04:06;7.60;99.90
4453;DHT22;2239;48.152;11.584;2023-11-21T05:06:34;7.60;99.90
4453;DHT22;2239;48.152;11.584;2023-11-21T05:08:59;7.60;99.90
4453;DHT22;2239;48.152;11.584;2023-11-21T05:11:26;7.60;99.90
4453;DHT22;2239;48.152;11.584;2023-11-21T05:13:52;7.60;99.90
4453;DHT22;2239;48.152;11.584;2023-11-21T05:16:19;7.60;99.90
4453;DHT22;2239;48.152;11.584;2023-11-21T05:18:44;7.60;99.90
4453;DHT22;2239;48.152;11.584;2023-11-21T05:21:10;7.60;99.90
4453;DHT22;2239;48.152;11.584;2023-11-21T05:23:36;7.60;99.90
4453;DHT22;2239;48.152;11.584;2023-11-21T05:26:03;7.50;99.90
4453;DHT22;2239;48.152;11.584;2023-11-21T05:28:28;7.50;99.90
4453;DHT22;2239;48.152;11.584;2023-11-21T05:30:54;7.50;99.90
4453;DHT22;2239;48.152;11.584;2023-11-21T05:33:20;7.60;99.90
4453;DHT22;2239;48.152;11.584;2023-11-21T05:35:46;7.50;99.90
4453;DHT22;2239;48.152;11.584;2023-11-21T05:38:14;7.50;99.90
4453;DHT22;2239;48.152;11.584;2023-11-21T05:40:40;7.50;99.90
4453;DHT22;2239;48.152;11.584;2023-11-21T05:43:06;7.50;99.90
4453;DHT22;2239;48.152;11.584;2023-11-21T05:45:32;7.50;99.90
4453;DHT22;2239;48.152;11.584;2023-11-21T05:47:58;7.50;99.90
4453;DHT22;2239;48.152;11.584;2023-11-21T05:50:24;7.50;99.90
4453;DHT22;2239;48.152;11.584;2023-11-21T05:52:50;7.50;99.90
4453;DHT22;2239;48.152;11.584;2023-11-21T05:55:16;7.50;99.90
4453;DHT22;2239;48.152;11.584;2023-11-21T05:57:42;7.50;99.90
4453;DHT22;2239;48.152;11.584;2023-11-21T06:00:11;7.50;99.90
4453;DHT22;2239;48.152;11.584;2023-11-21T06:02:40;7.50;99.90
4453;DHT22;2239;48.152;11.584;2023-11-21T06:05:07;7.50;99.90
4453;DHT22;2239;48.152;11.584;2023-11-21T06:07:33;7.50;99.90
4453;DHT22;2239;48.152;11.584;2023-11-21T06:09:59;7.50;99.90
4453;DHT22;2239;48.152;11.584;2023-11-21T06:12:27;7.50;99.90
4453;DHT22;2239;48.152;11.584;2023-11-21T06:14:53;7.50;99.90
4453;DHT22;2239;48.152;11.584;2023-11-21T06:17:18;7.50;99.90
4453;DHT22;2239;48.152;11.584;2023-11-21T06:19:44;7.40;99.90
4453;DHT22;2239;48.152;11.584;2023-11-21T06:22:11;7.40;99.90
4453;DHT22;2239;48.152;11.584;2023-11-21T06:24:37;7.40;99.90
4453;DHT22;2239;48.152;11.584;2023-11-21T06:27:04;7.40;99.90
4453;DHT22;2239;48.152;11.584;2023-11-21T06:29:30;7.40;99.90
4453;DHT22;2239;48.152;11.584;2023-11-21T06:31:57;7.50;99.90
4453;DHT22;2239;48.152;11.584;2023-11-21T06:34:23;7.50;99.90
4453;DHT22;2239;48.152;11.584;2023-11-21T06:36:49;7.50;99.90
4453;DHT22;2239;48.152;11.584;2023-11-21T06:39:14;7.50;99.90
4453;DHT22;2239;48.152;11.584;2023-11-21T06:41:42;7.50;99.90
4453;DHT22;2239;48.152;11.584;2023-11-21T06:44:08;7.50;99.90
4453;DHT22;2239;48.152;11.584;2023-11-21T06:46:34;7.50;99.90
4453;DHT22;2239;48.152;11.584;2023-11-21T06:48:59;7.50;99.90
4453;DHT22;2239;48.152;11.584;2023-11-21T06:51:25;7.50;99.90
4453;DHT22;2239;48.152;11.584;2023-11-21T06:53:50;7.50;99.90
4453;DHT22;2239;48.152;11.584;2023-11-21T06:56:19;7.50;99.90
4453;DHT22;2239;48.152;11.584;2023-11-21T06:58:47;7.50;99.90
4453;DHT22;2239;48.152;11.584;2023-11-21T07:01:14;7.50;99.90
4453;DHT22;2239;48.152;11.584;2023-11-21T07:03:40;7.50;99.90
4453;DHT22;2239;48.152;11.584;2023-11-21T07:06:07;7.60;99.90
4453;DHT22;2239;48.152;11.584;2023-11-21T07:08:33;7.60;99.90
4453;DHT22;2239;48.152;11.584;2023-11-21T07:10:58;7.50;99.90
4453;DHT22;2239;48.152;11.584;2023-11-21T07:13:24;7.60;99.90
4453;DHT22;2239;48.152;11.584;2023-11-21T07:15:49;7.60;99.90
4453;DHT22;2239;48.152;11.584;2023-11-21T07:18:15;7.50;99.90
4453;DHT22;2239;48.152;11.584;2023-11-21T07:20:40;7.60;99.90
4453;DHT22;2239;48.152;11.584;2023-11-21T07:23:06;7.50;99.90
4453;DHT22;2239;48.152;11.584;2023-11-21T07:25:32;7.50;99.90
4453;DHT22;2239;48.152;11.584;2023-11-21T07:27:59;7.50;99.90
4453;DHT22;2239;48.152;11.584;2023-11-21T07:30:25;7.50;99.90
4453;DHT22;2239;48.152;11.584;2023-11-21T07:32:51;7.60;99.90
4453;DHT22;2239;48.152;11.584;2023-11-21T07:35:17;7.60;99.90
4453;DHT22;2239;48.152;11.584;2023-11-21T07:37:42;7.60;99.90
4453;DHT22;2239;48.152;11.584;2023-11-21T07:40:08;7.60;99.90
4453;DHT22;2239;48.152;11.584;2023-11-21T07:42:37;7.60;99.90
4453;DHT22;2239;48.152;11.584;2023-11-21T07:45:03;7.70;99.90
4453;DHT22;2239;48.152;11.584;2023-11-21T07:47:29;7.80;99.90
4453;DHT22;2239;48.152;11.584;2023-11-21T07:49:54;7.90;99.90
4453;DHT22;2239;48.152;11.584;2023-11-21T07:52:22;8.00;99.90
4453;DHT22;2239;48.152;11.584;2023-11-21T07:54:47;8.00;99.90
4453;DHT22;2239;48.152;11.584;2023-11-21T07:57:13;8.00;99.90
4453;DHT22;2239;48.152;11.584;2023-11-21T07:59:39;8.00;99.90
4453;DHT22;2239;48.152;11.584;2023-11-21T08:02:06;8.10;99.90
4453;DHT22;2239;48.152;11.584;2023-11-21T08:04:32;8.10;99.90
4453;DHT22;2239;48.152;11.584;2023-11-21T08:06:58;8.20;99.90
4453;DHT22;2239;48.152;11.584;2023-11-21T08:09:23;8.20;99.90
4453;DHT22;2239;48.152;11.584;2023-11-21T08:11:49;8.30;99.90
4453;DHT22;2239;48.152;11.584;2023-11-21T08:14:15;8.30;99.90
4453;DHT22;2239;48.152;11.584;2023-11-21T08:16:40;8.30;99.90
4453;DHT22;2239;48.152;11.584;2023-11-21T08:19:06;8.30;99.90
4453;DHT22;2239;48.152;11.584;2023-11-21T08:21:35;8.30;99.90
4453;DHT22;2239;48.152;11.584;2023-11-21T08:24:02;8.30;99.90
4453;DHT22;2239;48.152;11.584;2023-11-21T08:26:29;8.30;99.90
4453;DHT22;2239;48.152;11.584;2023-11-21T08:28:55;8.20;99.90
4453;DHT22;2239;48.152;11.584;2023-11-21T08:31:28;8.10;99.90
4453;DHT22;2239;48.152;11.584;2023-11-21T08:33:54;8.10;99.90
4453;DHT22;2239;48.152;11.584;2023-11-21T08:36:22;8.20;99.90
4453;DHT22;2239;48.152;11.584;2023-11-21T08:38:50;8.30;99.90
4453;DHT22;2239;48.152;11.584;2023-11-21T08:41:18;8.30;99.90
4453;DHT22;2239;48.152;11.584;2023-11-21T08:43:47;8.50;99.90
4453;DHT22;2239;48.152;11.584;2023-11-21T08:46:13;8.50;99.90
4453;DHT22;2239;48.152;11.584;2023-11-21T08:48:40;8.80;99.90
4453;DHT22;2239;48.152;11.584;2023-11-21T08:51:06;9.80;99.90
4453;DHT22;2239;48.152;11.584;2023-11-21T08:53:32;11.10;99.90
4453;DHT22;2239;48.152;11.584;2023-11-21T08:55:58;12.40;99.90
4453;DHT22;2239;48.152;11.584;2023-11-21T08:58:24;12.80;99.30
4453;DHT22;2239;48.152;11.584;2023-11-21T09:00:49;12.50;99.60
4453;DHT22;2239;48.152;11.584;2023-11-21T09:03:15;12.10;99.90
4453;DHT22;2239;48.152;11.584;2023-11-21T09:05:40;11.70;99.90
4453;DHT22;2239;48.152;11.584;2023-11-21T09:08:06;11.40;99.90
4453;DHT22;2239;48.152;11.584;2023-11-21T09:10:33;11.00;99.90
4453;DHT22;2239;48.152;11.584;2023-11-21T09:13:01;10.90;99.90
4453;DHT22;2239;48.152;11.584;2023-11-21T09:15:27;10.80;99.90
4453;DHT22;2239;48.152;11.584;2023-11-21T09:17:53;10.60;99.90
4453;DHT22;2239;48.152;11.584;2023-11-21T09:20:18;10.50;99.90
4453;DHT22;2239;48.152;11.584;2023-11-21T09:22:50;10.40;99.90
4453;DHT22;2239;48.152;11.584;2023-11-21T09:25:16;10.30;99.90
4453;DHT22;2239;48.152;11.584;2023-11-21T09:27:41;10.30;99.90
4453;DHT22;2239;48.152;11.584;2023-11-21T09:30:07;10.30;99.90
4453;DHT22;2239;48.152;11.584;2023-11-21T09:32:35;10.20;99.90
4453;DHT22;2239;48.152;11.584;2023-11-21T09:35:03;10.20;99.90
4453;DHT22;2239;48.152;11.584;2023-11-21T09:37:29;10.10;99.90
4453;DHT22;2239;48.152;11.584;2023-11-21T09:39:55;10.10;99.90
4453;DHT22;2239;48.152;11.584;2023-11-21T09:42:27;10.20;99.90
4453;DHT22;2239;48.152;11.584;2023-11-21T09:47:44;10.40;99.90
4453;DHT22;2239;48.152;11.584;2023-11-21T09:50:11;10.50;99.90
4453;DHT22;2239;48.152;11.584;2023-11-21T09:55:30;11.00;99.90
4453;DHT22;2239;48.152;11.584;2023-11-21T09:58:02;12.00;99.90
4453;DHT22;2239;48.152;11.584;2023-11-21T10:00:30;13.50;99.90
4453;DHT22;2239;48.152;11.584;2023-11-21T10:02:58;14.10;97.80
4453;DHT22;2239;48.152;11.584;2023-11-21T10:05:25;14.10;97.50
4453;DHT22;2239;48.152;11.584;2023-11-21T10:07:50;14.20;97.30
4453;DHT22;2239;48.152;11.584;2023-11-21T10:10:21;14.20;96.60
4453;DHT22;2239;48.152;11.584;2023-11-21T10:12:49;14.00;96.60
4453;DHT22;2239;48.152;11.584;2023-11-21T10:15:21;13.50;97.30
4453;DHT22;2239;48.152;11.584;2023-11-21T10:17:49;13.30;98.00
4453;DHT22;2239;48.152;11.584;2023-11-21T10:20:15;12.90;98.50
4453;DHT22;2239;48.152;11.584;2023-11-21T10:22:41;12.70;99.10
4453;DHT22;2239;48.152;11.584;2023-11-21T10:25:11;12.30;99.80
4453;DHT22;2239;48.152;11.584;2023-11-21T10:27:40;12.00;99.90
4453;DHT22;2239;48.152;11.584;2023-11-21T10:30:07;11.70;99.90
4453;DHT22;2239;48.152;11.584;2023-11-21T10:32:40;11.60;99.90
4453;DHT22;2239;48.152;11.584;2023-11-21T10:35:06;11.40;99.90
4453;DHT22;2239;48.152;11.584;2023-11-21T10:37:39;11.30;99.90
4453;DHT22;2239;48.152;11.584;2023-11-21T10:40:11;11.30;99.90
4453;DHT22;2239;48.152;11.584;2023-11-21T10:42:38;11.30;99.90
4453;DHT22;2239;48.152;11.584;2023-11-21T10:45:05;11.40;99.90
4453;DHT22;2239;48.152;11.584;2023-11-21T10:47:39;11.40;99.90
4453;DHT22;2239;48.152;11.584;2023-11-21T10:50:05;11.50;99.90
4453;DHT22;2239;48.152;11.584;2023-11-21T10:52:31;11.60;99.90
4453;DHT22;2239;48.152;11.584;2023-11-21T10:54:56;11.80;99.90
4453;DHT22;2239;48.152;11.584;2023-11-21T10:57:25;11.70;99.90
4453;DHT22;2239;48.152;11.584;2023-11-21T10:59:54;11.60;99.90
4453;DHT22;2239;48.152;11.584;2023-11-21T11:02:26;11.40;99.90
4453;DHT22;2239;48.152;11.584;2023-11-21T11:04:54;11.30;99.90
4453;DHT22;2239;48.152;11.584;2023-11-21T11:07:26;11.20;99.90
4453;DHT22;2239;48.152;11.584;2023-11-21T11:09:55;11.20;99.90
4453;DHT22;2239;48.152;11.584;2023-11-21T11:12:21;11.20;99.90
4453;DHT22;2239;48.152;11.584;2023-11-21T11:14:48;11.30;99.90
4453;DHT22;2239;48.152;11.584;2023-11-21T11:17:14;11.40;99.90
4453;DHT22;2239;48.152;11.584;2023-11-21T11:19:40;11.50;99.90
4453;DHT22;2239;48.152;11.584;2023-11-21T11:22:14;11.50;99.90
4453;DHT22;2239;48.152;11.584;2023-11-21T11:35:34;11.30;99.90
4453;DHT22;2239;48.152;11.584;2023-11-21T11:38:03;11.30;99.90
4453;DHT22;2239;48.152;11.584;2023-11-21T11:40:41;11.20;99.90
4453;DHT22;2239;48.152;11.584;2023-11-21T11:43:10;11.10;99.90
4453;DHT22;2239;48.152;11.584;2023-11-21T11:45:35;11.10;99.90
4453;DHT22;2239;48.152;11.584;2023-11-21T11:48:03;11.10;99.90
4453;DHT22;2239;48.152;11.584;2023-11-21T11:50:29;11.00;99.90
4453;DHT22;2239;48.152;11.584;2023-11-21T11:53:11;11.00;99.90
4453;DHT22;2239;48.152;11.584;2023-11-21T11:55:37;10.90;99.90
4453;DHT22;2239;48.152;11.584;2023-11-21T11:58:06;10.90;99.90
4453;DHT22;2239;48.152;11.584;2023-11-21T12:00:35;10.70;99.90
4453;DHT22;2239;48.152;11.584;2023-11-21T12:03:04;10.60;99.90
4453;DHT22;2239;48.152;11.584;2023-11-21T12:05:32;10.50;99.90
4453;DHT22;2239;48.152;11.584;2023-11-21T12:08:01;10.50;99.90
4453;DHT22;2239;48.152;11.584;2023-11-21T12:10:29;10.40;99.90
4453;DHT22;2239;48.152;11.584;2023-11-21T12:12:57;10.50;99.90
4453;DHT22;2239;48.152;11.584;2023-11-21T12:15:24;10.50;99.90
4453;DHT22;2239;48.152;11.584;2023-11-21T12:17:51;10.50;99.90
4453;DHT22;2239;48.152;11.584;2023-11-21T12:20:22;10.50;99.90
4453;DHT22;2239;48.152;11.584;2023-11-21T12:22:49;10.50;99.90
4453;DHT22;2239;48.152;11.584;2023-11-21T12:25:25;10.50;99.90
4453;DHT22;2239;48.152;11.584;2023-11-21T12:27:54;10.50;99.90
4453;DHT22;2239;48.152;11.584;2023-11-21T12:30:22;10.50;99.90
4453;DHT22;2239;48.152;11.584;2023-11-21T12:32:52;10.70;99.90
4453;DHT22;2239;48.152;11.584;2023-11-21T12:35:19;10.90;99.90
4453;DHT22;2239;48.152;11.584;2023-11-21T12:37:46;11.00;99.90
4453;DHT22;2239;48.152;11.584;2023-11-21T12:40:13;11.20;99.90
4453;DHT22;2239;48.152;11.584;2023-11-21T12:42:47;11.20;99.90
4453;DHT22;2239;48.152;11.584;2023-11-21T12:48:02;11.40;99.90
4453;DHT22;2239;48.152;11.584;2023-11-21T12:50:33;11.40;99.90
4453;DHT22;2239;48.152;11.584;2023-11-21T12:53:03;11.40;99.90
4453;DHT22;2239;48.152;11.584;2023-11-21T12:55:31;11.10;99.90
4453;DHT22;2239;48.152;11.584;2023-11-21T12:57:57;11.00;99.90
4453;DHT22;2239;48.152;11.584;2023-11-21T13:00:35;10.70;99.90
4453;DHT22;2239;48.152;11.584;2023-11-21T13:03:07;10.50;99.90
4453;DHT22;2239;48.152;11.584;2023-11-21T13:05:34;10.30;99.90
4453;DHT22;2239;48.152;11.584;2023-11-21T13:08:03;10.10;99.90
4453;DHT22;2239;48.152;11.584;2023-11-21T13:10:33;10.00;99.90
4453;DHT22;2239;48.152;11.584;2023-11-21T13:13:02;9.90;99.90
4453;DHT22;2239;48.152;11.584;2023-11-21T13:15:31;9.90;99.90
4453;DHT22;2239;48.152;11.584;2023-11-21T13:17:58;9.80;99.90
4453;DHT22;2239;48.152;11.584;2023-11-21T13:20:24;9.90;99.90
4453;DHT22;2239;48.152;11.584;2023-11-21T13:22:52;9.90;99.90
4453;DHT22;2239;48.152;11.584;2023-11-21T13:25:26;9.90;99.90
4453;DHT22;2239;48.152;11.584;2023-11-21T13:27:58;9.90;99.90
4453;DHT22;2239;48.152;11.584;2023-11-21T13:30:27;10.00;99.90
4453;DHT22;2239;48.152;11.584;2023-11-21T13:32:59;10.20;99.90
4453;DHT22;2239;48.152;11.584;2023-11-21T13:35:28;10.60;99.90
4453;DHT22;2239;48.152;11.584;2023-11-21T13:38:10;11.00;99.90
4453;DHT22;2239;48.152;11.584;2023-11-21T13:40:37;11.30;99.90
4453;DHT22;2239;48.152;11.584;2023-11-21T13:43:17;11.60;99.90
4453;DHT22;2239;48.152;11.584;2023-11-21T13:45:47;11.60;99.90
4453;DHT22;2239;48.152;11.584;2023-11-21T13:48:15;11.40;99.90
4453;DHT22;2239;48.152;11.584;2023-11-21T13:50:44;11.10;99.90
4453;DHT22;2239;48.152;11.584;2023-11-21T13:53:26;11.00;99.90
4453;DHT22;2239;48.152;11.584;2023-11-21T13:55:53;10.80;99.90
4453;DHT22;2239;48.152;11.584;2023-11-21T13:58:20;10.70;99.90
4453;DHT22;2239;48.152;11.584;2023-11-21T14:00:50;10.60;99.90
4453;DHT22;2239;48.152;11.584;2023-11-21T14:03:22;10.50;99.90
4453;DHT22;2239;48.152;11.584;2023-11-21T14:05:49;10.30;99.90
4453;DHT22;2239;48.152;11.584;2023-11-21T14:08:21;10.20;99.90
4453;DHT22;2239;48.152;11.584;2023-11-21T14:10:48;10.00;99.90
4453;DHT22;2239;48.152;11.584;2023-11-21T14:13:21;9.90;99.90
4453;DHT22;2239;48.152;11.584;2023-11-21T14:15:49;9.70;99.90
4453;DHT22;2239;48.152;11.584;2023-11-21T14:18:17;9.70;99.90
4453;DHT22;2239;48.152;11.584;2023-11-21T14:20:51;9.60;99.90
4453;DHT22;2239;48.152;11.584;2023-11-21T14:23:17;9.60;99.90
4453;DHT22;2239;48.152;11.584;2023-11-21T14:25:43;9.50;99.90
4453;DHT22;2239;48.152;11.584;2023-11-21T14:28:09;9.40;99.90
4453;DHT22;2239;48.152;11.584;2023-11-21T14:30:37;9.30;99.90
4453;DHT22;2239;48.152;11.584;2023-11-21T14:33:05;9.30;99.90
4453;DHT22;2239;48.152;11.584;2023-11-21T14:35:31;9.20;99.90
4453;DHT22;2239;48.152;11.584;2023-11-21T14:37:58;9.10;99.90
4453;DHT22;2239;48.152;11.584;2023-11-21T14:40:25;9.10;99.90
4453;DHT22;2239;48.152;11.584;2023-11-21T14:42:51;9.10;99.90
4453;DHT22;2239;48.152;11.584;2023-11-21T14:45:22;9.10;99.90
4453;DHT22;2239;48.152;11.584;2023-11-21T14:47:51;9.10;99.90
4453;DHT22;2239;48.152;11.584;2023-11-21T14:50:41;9.00;99.90
4453;DHT22;2239;48.152;11.584;2023-11-21T14:53:07;9.00;99.90
4453;DHT22;2239;48.152;11.584;2023-11-21T14:55:34;9.00;99.90
4453;DHT22;2239;48.152;11.584;2023-11-21T14:58:19;9.00;99.90
4453;DHT22;2239;48.152;11.584;2023-11-21T15:00:57;9.00;99.90
4453;DHT22;2239;48.152;11.584;2023-11-21T15:03:28;9.00;99.90
4453;DHT22;2239;48.152;11.584;2023-11-21T15:05:59;9.00;99.90
4453;DHT22;2239;48.152;11.584;2023-11-21T15:08:54;9.00;99.90
4453;DHT22;2239;48.152;11.584;2023-11-21T15:11:46;8.90;99.90
4453;DHT22;2239;48.152;11.584;2023-11-21T15:14:13;8.90;99.90
4453;DHT22;2239;48.152;11.584;2023-11-21T15:16:45;8.90;99.90
4453;DHT22;2239;48.152;11.584;2023-11-21T15:19:16;8.90;99.90
4453;DHT22;2239;48.152;11.584;2023-11-21T15:21:44;8.90;99.90
4453;DHT22;2239;48.152;11.584;2023-11-21T15:24:11;8.90;99.90
4453;DHT22;2239;48.152;11.584;2023-11-21T15:26:37;8.90;99.90
4453;DHT22;2239;48.152;11.584;2023-11-21T15:29:02;8.90;99.90
4453;DHT22;2239;48.152;11.584;2023-11-21T15:31:29;8.90;99.90
4453;DHT22;2239;48.152;11.584;2023-11-21T15:33:54;8.90;99.90
4453;DHT22;2239;48.152;11.584;2023-11-21T15:36:25;8.90;99.90
4453;DHT22;2239;48.152;11.584;2023-11-21T15:38:50;8.90;99.90
4453;DHT22;2239;48.152;11.584;2023-11-21T15:41:16;8.80;99.90
4453;DHT22;2239;48.152;11.584;2023-11-21T15:43:42;8.80;99.90
4453;DHT22;2239;48.152;11.584;2023-11-21T15:46:07;8.80;99.90
4453;DHT22;2239;48.152;11.584;2023-11-21T15:48:34;8.90;99.90
4453;DHT22;2239;48.152;11.584;2023-11-21T15:51:01;8.80;99.90
4453;DHT22;2239;48.152;11.584;2023-11-21T15:53:28;8.60;99.90
4453;DHT22;2239;48.152;11.584;2023-11-21T15:55:54;8.60;99.90
4453;DHT22;2239;48.152;11.584;2023-11-21T15:58:19;8.50;99.90
4453;DHT22;2239;48.152;11.584;2023-11-21T16:00:45;8.50;99.90
4453;DHT22;2239;48.152;11.584;2023-11-21T16:03:11;8.50;99.90
4453;DHT22;2239;48.152;11.584;2023-11-21T16:05:37;8.40;99.90
4453;DHT22;2239;48.152;11.584;2023-11-21T16:08:03;8.40;99.90
4453;DHT22;2239;48.152;11.584;2023-11-21T16:10:28;8.40;99.90
4453;DHT22;2239;48.152;11.584;2023-11-21T16:12:54;8.40;99.90
4453;DHT22;2239;48.152;11.584;2023-11-21T16:15:20;8.40;99.90
4453;DHT22;2239;48.152;11.584;2023-11-21T16:17:46;8.40;99.90